createdAt,value
2018-06-14T00:00:28.371Z,0.00
2018-06-14T00:01:28.594Z,0.00
2018-06-14T00:02:28.823Z,0.00
2018-06-14T00:03:29.052Z,0.00
2018-06-14T00:04:29.283Z,0.00
2018-06-14T00:05:29.511Z,0.00
2018-06-14T00:06:29.740Z,0.00
2018-06-14T00:07:29.963Z,0.00
2018-06-14T00:08:30.188Z,0.00
2018-06-14T00:09:30.420Z,0.00
2018-06-14T00:10:30.649Z,0.00
2018-06-14T00:11:30.875Z,0.00
2018-06-14T00:12:31.103Z,0.00
2018-06-14T00:13:31.333Z,0.00
2018-06-14T00:14:31.561Z,0.00
2018-06-14T00:15:31.790Z,0.00
2018-06-14T00:16:32.018Z,0.00
2018-06-14T00:17:32.261Z,0.00
2018-06-14T00:18:32.476Z,0.00
2018-06-14T00:19:32.696Z,0.00
2018-06-14T00:20:32.938Z,0.00
2018-06-14T00:21:33.162Z,0.00
2018-06-14T00:22:33.392Z,0.00
2018-06-14T00:23:33.646Z,0.00
2018-06-14T00:24:33.850Z,0.00
2018-06-14T00:25:34.072Z,0.00
2018-06-14T00:26:34.310Z,0.00
2018-06-14T00:27:34.537Z,0.00
2018-06-14T00:28:34.757Z,0.00
2018-06-14T00:29:34.997Z,0.00
2018-06-14T00:30:35.217Z,0.00
2018-06-14T00:31:35.440Z,0.00
2018-06-14T00:32:35.678Z,0.00
2018-06-14T00:33:35.906Z,0.00
2018-06-14T00:34:36.135Z,0.00
2018-06-14T00:35:36.371Z,0.00
2018-06-14T00:36:36.591Z,0.00
2018-06-14T00:37:36.821Z,0.00
2018-06-14T00:38:37.050Z,0.00
2018-06-14T00:39:37.286Z,0.00
2018-06-14T00:40:37.509Z,0.00
2018-06-14T00:41:37.739Z,0.00
2018-06-14T00:42:37.965Z,0.00
2018-06-14T00:43:38.196Z,0.00
2018-06-14T00:44:38.425Z,0.00
2018-06-14T00:45:38.657Z,0.00
2018-06-14T00:46:38.885Z,0.00
2018-06-14T00:47:39.104Z,0.00
2018-06-14T00:48:39.346Z,0.00
2018-06-14T00:49:39.555Z,0.00
2018-06-14T00:50:39.784Z,0.00
2018-06-14T00:51:40.015Z,0.00
2018-06-14T00:52:40.244Z,0.00
2018-06-14T00:53:40.474Z,0.00
2018-06-14T00:54:40.702Z,0.00
2018-06-14T00:55:40.927Z,0.00
2018-06-14T00:56:41.153Z,0.00
2018-06-14T00:57:41.386Z,0.00
2018-06-14T00:58:41.611Z,0.00
2018-06-14T00:59:41.848Z,0.00
2018-06-14T01:00:42.067Z,0.00
2018-06-14T01:01:42.301Z,0.00
2018-06-14T01:02:42.526Z,0.00
2018-06-14T01:03:42.751Z,0.00
2018-06-14T01:04:42.984Z,0.00
2018-06-14T01:05:43.207Z,0.00
2018-06-14T01:06:43.439Z,0.00
2018-06-14T01:07:43.667Z,0.00
2018-06-14T01:08:43.886Z,0.00
2018-06-14T01:09:44.126Z,0.00
2018-06-14T01:10:44.352Z,0.00
2018-06-14T01:11:44.575Z,0.00
2018-06-14T01:12:44.809Z,0.00
2018-06-14T01:13:45.037Z,0.00
2018-06-14T01:14:45.262Z,0.00
2018-06-14T01:15:45.490Z,0.00
2018-06-14T01:16:45.718Z,0.00
2018-06-14T01:17:45.949Z,0.00
2018-06-14T01:18:46.179Z,0.00
2018-06-14T01:19:46.403Z,0.00
2018-06-14T01:20:46.627Z,0.00
2018-06-14T01:21:46.861Z,0.00
2018-06-14T01:22:47.093Z,0.00
2018-06-14T01:23:47.330Z,0.00
2018-06-14T01:24:47.551Z,0.00
2018-06-14T01:25:47.774Z,0.00
2018-06-14T01:26:47.998Z,0.00
2018-06-14T01:27:48.228Z,0.00
2018-06-14T01:28:48.451Z,0.00
2018-06-14T01:29:48.685Z,0.00
2018-06-14T01:30:48.910Z,0.00
2018-06-14T01:31:49.135Z,0.00
2018-06-14T01:32:49.388Z,0.00
2018-06-14T01:33:49.591Z,0.00
2018-06-14T01:34:49.821Z,0.00
2018-06-14T01:35:50.052Z,0.00
2018-06-14T01:36:50.280Z,0.00
2018-06-14T01:37:50.510Z,0.00
2018-06-14T01:38:50.737Z,0.00
2018-06-14T01:39:50.970Z,0.00
2018-06-14T01:40:51.197Z,0.00
2018-06-14T01:41:51.431Z,0.00
2018-06-14T01:42:51.655Z,0.00
2018-06-14T01:43:51.885Z,0.00
2018-06-14T01:44:52.115Z,0.00
2018-06-14T01:45:52.355Z,0.00
2018-06-14T01:46:52.567Z,0.00
2018-06-14T01:47:52.810Z,0.00
2018-06-14T01:48:53.028Z,0.00
2018-06-14T01:49:53.258Z,0.00
2018-06-14T01:50:53.493Z,0.00
2018-06-14T01:51:53.713Z,0.00
2018-06-14T01:52:53.942Z,0.00
2018-06-14T01:53:54.178Z,0.00
2018-06-14T01:54:54.393Z,0.00
2018-06-14T01:55:54.628Z,0.00
2018-06-14T01:56:54.849Z,0.00
2018-06-14T01:57:55.087Z,0.00
2018-06-14T01:58:55.315Z,0.00
2018-06-14T01:59:55.542Z,0.00
2018-06-14T02:00:55.770Z,0.00
2018-06-14T02:01:55.998Z,0.00
2018-06-14T02:02:56.230Z,0.00
2018-06-14T02:03:56.450Z,0.00
2018-06-14T02:04:56.685Z,0.00
2018-06-14T02:05:56.915Z,0.00
2018-06-14T02:06:57.138Z,0.00
2018-06-14T02:07:57.367Z,0.00
2018-06-14T02:08:57.597Z,0.00
2018-06-14T02:09:57.823Z,0.00
2018-06-14T02:10:58.052Z,0.00
2018-06-14T02:11:58.278Z,0.00
2018-06-14T02:12:58.512Z,0.00
2018-06-14T02:13:58.740Z,0.00
2018-06-14T02:14:58.967Z,0.00
2018-06-14T02:15:59.195Z,0.00
2018-06-14T02:16:59.413Z,0.00
2018-06-14T02:17:59.641Z,0.00
2018-06-14T02:18:59.868Z,0.00
2018-06-14T02:20:00.095Z,0.00
2018-06-14T02:21:00.322Z,0.00
2018-06-14T02:22:00.551Z,0.00
2018-06-14T02:23:00.781Z,0.00
2018-06-14T02:24:01.014Z,0.00
2018-06-14T02:25:01.234Z,0.00
2018-06-14T02:26:01.473Z,4.00
2018-06-14T02:27:01.689Z,4.00
2018-06-14T02:28:01.930Z,4.00
2018-06-14T02:29:02.159Z,0.00
2018-06-14T02:30:02.401Z,0.00
2018-06-14T02:31:02.609Z,4.00
2018-06-14T02:32:02.837Z,4.00
2018-06-14T02:33:03.067Z,0.00
2018-06-14T02:34:03.295Z,4.00
2018-06-14T02:35:03.525Z,4.00
2018-06-14T02:36:03.755Z,4.00
2018-06-14T02:37:03.984Z,4.00
2018-06-14T02:38:04.213Z,8.00
2018-06-14T02:39:04.450Z,8.00
2018-06-14T02:40:04.677Z,8.00
2018-06-14T02:41:04.906Z,8.00
2018-06-14T02:42:05.135Z,12.00
2018-06-14T02:43:05.361Z,12.00
2018-06-14T02:44:05.588Z,16.00
2018-06-14T02:45:05.846Z,16.00
2018-06-14T02:46:06.078Z,20.00
2018-06-14T02:47:06.300Z,24.00
2018-06-14T02:48:06.524Z,24.00
2018-06-14T02:49:06.756Z,28.00
2018-06-14T02:50:06.998Z,36.00
2018-06-14T02:51:07.221Z,44.00
2018-06-14T02:52:07.453Z,52.00
2018-06-14T02:53:07.670Z,60.00
2018-06-14T02:54:07.901Z,72.00
2018-06-14T02:55:08.137Z,80.00
2018-06-14T02:56:08.365Z,96.00
2018-06-14T02:57:08.589Z,112.00
2018-06-14T02:58:08.814Z,128.00
2018-06-14T02:59:09.042Z,144.00
2018-06-14T03:00:09.271Z,164.00
2018-06-14T03:01:09.499Z,180.00
2018-06-14T03:02:09.735Z,204.00
2018-06-14T03:03:09.965Z,220.00
2018-06-14T03:04:10.183Z,248.00
2018-06-14T03:05:10.412Z,272.00
2018-06-14T03:06:10.641Z,296.00
2018-06-14T03:07:10.870Z,324.00
2018-06-14T03:08:11.101Z,352.00
2018-06-14T03:09:11.331Z,380.00
2018-06-14T03:10:11.562Z,412.00
2018-06-14T03:11:11.793Z,444.00
2018-06-14T03:12:12.022Z,480.00
2018-06-14T03:13:12.237Z,508.00
2018-06-14T03:14:12.477Z,540.00
2018-06-14T03:15:12.707Z,576.00
2018-06-14T03:16:12.933Z,604.00
2018-06-14T03:17:13.166Z,632.00
2018-06-14T03:18:13.396Z,656.00
2018-06-14T03:19:13.626Z,684.00
2018-06-14T03:20:13.847Z,708.00
2018-06-14T03:21:14.077Z,732.00
2018-06-14T03:22:14.310Z,756.00
2018-06-14T03:23:14.538Z,780.00
2018-06-14T03:24:14.767Z,804.00
2018-06-14T03:25:14.996Z,832.00
2018-06-14T03:26:15.223Z,856.00
2018-06-14T03:27:15.450Z,876.00
2018-06-14T03:28:15.676Z,892.00
2018-06-14T03:29:15.897Z,916.00
2018-06-14T03:30:16.132Z,948.00
2018-06-14T03:31:16.360Z,968.00
2018-06-14T03:32:16.589Z,992.00
2018-06-14T03:33:16.815Z,1020.00
2018-06-14T03:34:17.057Z,1056.00
2018-06-14T03:35:17.274Z,1092.00
2018-06-14T03:36:17.505Z,1140.00
2018-06-14T03:37:17.733Z,1184.00
2018-06-14T03:38:17.963Z,1240.00
2018-06-14T03:39:18.190Z,1292.00
2018-06-14T03:40:18.419Z,1332.00
2018-06-14T03:41:18.648Z,1368.00
2018-06-14T03:42:18.876Z,1400.00
2018-06-14T03:43:19.101Z,1456.00
2018-06-14T03:44:19.330Z,1676.00
2018-06-14T03:45:19.559Z,2328.00
2018-06-14T03:46:19.797Z,2452.00
2018-06-14T03:47:20.017Z,2332.00
2018-06-14T03:48:20.247Z,2256.00
2018-06-14T03:49:20.476Z,2108.00
2018-06-14T03:50:20.706Z,1748.00
2018-06-14T03:51:20.935Z,1780.00
2018-06-14T03:52:21.152Z,1820.00
2018-06-14T03:53:21.403Z,1868.00
2018-06-14T03:54:21.619Z,1928.00
2018-06-14T03:55:21.854Z,1992.00
2018-06-14T03:56:22.075Z,2056.00
2018-06-14T03:57:22.303Z,2148.00
2018-06-14T03:58:22.547Z,2224.00
2018-06-14T03:59:22.768Z,2280.00
2018-06-14T04:00:22.998Z,2336.00
2018-06-14T04:01:23.227Z,2384.00
2018-06-14T04:02:23.450Z,2416.00
2018-06-14T04:03:23.682Z,2404.00
2018-06-14T04:04:23.906Z,2376.00
2018-06-14T04:05:24.138Z,2324.00
2018-06-14T04:06:24.371Z,2272.00
2018-06-14T04:07:24.599Z,2260.00
2018-06-14T04:08:24.838Z,2304.00
2018-06-14T04:09:25.053Z,2412.00
2018-06-14T04:10:25.320Z,2556.00
2018-06-14T04:11:25.517Z,2732.00
2018-06-14T04:12:25.740Z,2944.00
2018-06-14T04:13:25.966Z,3184.00
2018-06-14T04:14:26.194Z,3472.00
2018-06-14T04:15:26.428Z,3796.00
2018-06-14T04:16:26.653Z,4140.00
2018-06-14T04:17:26.886Z,4456.00
2018-06-14T04:18:27.122Z,4716.00
2018-06-14T04:19:27.343Z,4908.00
2018-06-14T04:20:27.580Z,5076.00
2018-06-14T04:21:27.812Z,5256.00
2018-06-14T04:22:28.034Z,5736.00
2018-06-14T04:23:28.269Z,6688.00
2018-06-14T04:24:28.492Z,6424.00
2018-06-14T04:25:28.723Z,6636.00
2018-06-14T04:26:28.950Z,6984.00
2018-06-14T04:27:29.228Z,7428.00
2018-06-14T04:28:29.411Z,7760.00
2018-06-14T04:29:29.635Z,8056.00
2018-06-14T04:30:29.864Z,8288.00
2018-06-14T04:31:30.093Z,8592.00
2018-06-14T04:32:30.323Z,9076.00
2018-06-14T04:33:30.552Z,9780.00
2018-06-14T04:34:30.776Z,13692.00
2018-06-14T04:35:31.006Z,18816.00
2018-06-14T04:36:31.237Z,22144.00
2018-06-14T04:37:31.467Z,21184.00
2018-06-14T04:38:31.695Z,21984.00
2018-06-14T04:39:31.927Z,22976.00
2018-06-14T04:40:32.159Z,22112.00
2018-06-14T04:41:32.384Z,21120.00
2018-06-14T04:42:32.617Z,20480.00
2018-06-14T04:43:32.848Z,25312.00
2018-06-14T04:44:33.084Z,26464.00
2018-06-14T04:45:33.303Z,27264.00
2018-06-14T04:46:33.543Z,28544.00
2018-06-14T04:47:33.774Z,28768.00
2018-06-14T04:48:34.005Z,29632.00
2018-06-14T04:49:34.236Z,29024.00
2018-06-14T04:50:34.473Z,28288.00
2018-06-14T04:51:34.704Z,27744.00
2018-06-14T04:52:34.939Z,27520.00
2018-06-14T04:53:35.214Z,27360.00
2018-06-14T04:54:35.394Z,26784.00
2018-06-14T04:55:35.634Z,25568.00
2018-06-14T04:56:35.865Z,23872.00
2018-06-14T04:57:36.099Z,24576.00
2018-06-14T04:58:36.336Z,25088.00
2018-06-14T04:59:36.567Z,25376.00
2018-06-14T05:00:36.802Z,25504.00
2018-06-14T05:01:37.033Z,26368.00
2018-06-14T05:02:37.276Z,26176.00
2018-06-14T05:03:37.500Z,22816.00
2018-06-14T05:04:37.728Z,23264.00
2018-06-14T05:05:37.966Z,24160.00
2018-06-14T05:06:38.201Z,22496.00
2018-06-14T05:07:38.435Z,23552.00
2018-06-14T05:08:38.670Z,23552.00
2018-06-14T05:09:38.906Z,26400.00
2018-06-14T05:10:39.142Z,30208.00
2018-06-14T05:11:39.381Z,19904.00
2018-06-14T05:12:39.610Z,30400.00
2018-06-14T05:13:39.867Z,29760.00
2018-06-14T05:14:40.073Z,29152.00
2018-06-14T05:15:40.306Z,28992.00
2018-06-14T05:16:40.543Z,28928.00
2018-06-14T05:17:40.779Z,29024.00
2018-06-14T05:18:41.024Z,29440.00
2018-06-14T05:19:41.255Z,29568.00
2018-06-14T05:20:41.490Z,29952.00
2018-06-14T05:21:41.726Z,30112.00
2018-06-14T05:22:41.962Z,30144.00
2018-06-14T05:23:42.200Z,29248.00
2018-06-14T05:24:42.435Z,29152.00
2018-06-14T05:25:42.676Z,28480.00
2018-06-14T05:26:42.908Z,27968.00
2018-06-14T05:27:43.144Z,27648.00
2018-06-14T05:28:43.382Z,28384.00
2018-06-14T05:29:43.675Z,28736.00
2018-06-14T05:30:43.867Z,29056.00
2018-06-14T05:31:44.101Z,28704.00
2018-06-14T05:32:44.335Z,27840.00
2018-06-14T05:33:44.575Z,27168.00
2018-06-14T05:34:44.821Z,27648.00
2018-06-14T05:35:45.048Z,28320.00
2018-06-14T05:36:45.287Z,28288.00
2018-06-14T05:37:45.514Z,27904.00
2018-06-14T05:38:45.767Z,27648.00
2018-06-14T05:39:46.016Z,25792.00
2018-06-14T05:40:46.245Z,24672.00
2018-06-14T05:41:46.488Z,23712.00
2018-06-14T05:42:46.722Z,24288.00
2018-06-14T05:43:46.960Z,19008.00
2018-06-14T05:44:47.200Z,20800.00
2018-06-14T05:45:47.436Z,21152.00
2018-06-14T05:46:47.677Z,20864.00
2018-06-14T05:47:47.958Z,25440.00
2018-06-14T05:48:48.175Z,23488.00
2018-06-14T05:49:48.383Z,20960.00
2018-06-14T05:50:48.620Z,22048.00
2018-06-14T05:51:48.860Z,21600.00
2018-06-14T05:52:49.099Z,21472.00
2018-06-14T05:53:49.335Z,24704.00
2018-06-14T05:54:49.574Z,24800.00
2018-06-14T05:55:49.809Z,26144.00
2018-06-14T05:56:50.048Z,25664.00
2018-06-14T05:57:50.298Z,24736.00
2018-06-14T05:58:50.535Z,24128.00
2018-06-14T05:59:50.769Z,24256.00
2018-06-14T06:00:51.015Z,24128.00
2018-06-14T06:01:51.259Z,23520.00
2018-06-14T06:02:51.535Z,22176.00
2018-06-14T06:03:51.732Z,19808.00
2018-06-14T06:04:51.968Z,19040.00
2018-06-14T06:05:52.208Z,20672.00
2018-06-14T06:06:52.447Z,22112.00
2018-06-14T06:07:52.687Z,23008.00
2018-06-14T06:08:52.929Z,21856.00
2018-06-14T06:09:53.169Z,20288.00
2018-06-14T06:10:53.404Z,20288.00
2018-06-14T06:11:53.645Z,20704.00
2018-06-14T06:12:53.885Z,20288.00
2018-06-14T06:13:54.125Z,20032.00
2018-06-14T06:14:54.365Z,18912.00
2018-06-14T06:15:54.600Z,17920.00
2018-06-14T06:16:54.848Z,18272.00
2018-06-14T06:17:55.076Z,18688.00
2018-06-14T06:18:55.315Z,18464.00
2018-06-14T06:19:55.612Z,18240.00
2018-06-14T06:20:55.802Z,18368.00
2018-06-14T06:21:56.034Z,18496.00
2018-06-14T06:22:56.275Z,18240.00
2018-06-14T06:23:56.514Z,17984.00
2018-06-14T06:24:56.755Z,17984.00
2018-06-14T06:25:56.985Z,18368.00
2018-06-14T06:26:57.234Z,17280.00
2018-06-14T06:27:57.476Z,18592.00
2018-06-14T06:28:57.718Z,18592.00
2018-06-14T06:29:57.958Z,18272.00
2018-06-14T06:30:58.203Z,17248.00
2018-06-14T06:31:58.440Z,15776.00
2018-06-14T06:32:58.678Z,15616.00
2018-06-14T06:33:58.914Z,13776.00
2018-06-14T06:34:59.159Z,13312.00
2018-06-14T06:35:59.402Z,13016.00
2018-06-14T06:36:59.639Z,14192.00
2018-06-14T06:37:59.882Z,15488.00
2018-06-14T06:39:00.123Z,16256.00
2018-06-14T06:40:00.364Z,15552.00
2018-06-14T06:41:00.601Z,14380.00
2018-06-14T06:42:00.847Z,14860.00
2018-06-14T06:43:01.089Z,14864.00
2018-06-14T06:44:01.333Z,14424.00
2018-06-14T06:45:01.632Z,14384.00
2018-06-14T06:46:01.811Z,13844.00
2018-06-14T06:47:02.056Z,14028.00
2018-06-14T06:48:02.293Z,13948.00
2018-06-14T06:49:02.525Z,13912.00
2018-06-14T06:50:02.767Z,13572.00
2018-06-14T06:51:03.006Z,13588.00
2018-06-14T06:52:03.245Z,13460.00
2018-06-14T06:53:03.494Z,13276.00
2018-06-14T06:54:03.721Z,12980.00
2018-06-14T06:55:03.966Z,11640.00
2018-06-14T06:56:04.209Z,13040.00
2018-06-14T06:57:04.443Z,12848.00
2018-06-14T06:58:04.675Z,12580.00
2018-06-14T06:59:04.917Z,12412.00
2018-06-14T07:00:05.156Z,12284.00
2018-06-14T07:01:05.392Z,12212.00
2018-06-14T07:02:05.637Z,11976.00
2018-06-14T07:03:05.878Z,12032.00
2018-06-14T07:04:06.125Z,11928.00
2018-06-14T07:05:06.351Z,11688.00
2018-06-14T07:06:06.686Z,11764.00
2018-06-14T07:07:06.825Z,11796.00
2018-06-14T07:08:07.065Z,11908.00
2018-06-14T07:09:07.307Z,12060.00
2018-06-14T07:10:07.549Z,12228.00
2018-06-14T07:11:07.785Z,12276.00
2018-06-14T07:12:08.021Z,12388.00
2018-06-14T07:13:08.252Z,9768.00
2018-06-14T07:14:08.491Z,12360.00
2018-06-14T07:15:08.726Z,9600.00
2018-06-14T07:16:08.961Z,9324.00
2018-06-14T07:17:09.201Z,9492.00
2018-06-14T07:18:09.441Z,11820.00
2018-06-14T07:19:09.678Z,11708.00
2018-06-14T07:20:09.914Z,11700.00
2018-06-14T07:21:10.155Z,11976.00
2018-06-14T07:22:10.393Z,11612.00
2018-06-14T07:23:10.625Z,10524.00
2018-06-14T07:24:10.862Z,8912.00
2018-06-14T07:25:11.103Z,8888.00
2018-06-14T07:26:11.343Z,8632.00
2018-06-14T07:27:11.572Z,8308.00
2018-06-14T07:28:11.814Z,8184.00
2018-06-14T07:29:12.046Z,8192.00
2018-06-14T07:30:12.286Z,10504.00
2018-06-14T07:31:12.520Z,11412.00
2018-06-14T07:32:12.767Z,11708.00
2018-06-14T07:33:12.991Z,10008.00
2018-06-14T07:34:13.228Z,8760.00
2018-06-14T07:35:13.464Z,8688.00
2018-06-14T07:36:13.693Z,8688.00
2018-06-14T07:37:13.935Z,8624.00
2018-06-14T07:38:14.171Z,8484.00
2018-06-14T07:39:14.401Z,8372.00
2018-06-14T07:40:14.642Z,8256.00
2018-06-14T07:41:14.873Z,8104.00
2018-06-14T07:42:15.106Z,8032.00
2018-06-14T07:43:15.337Z,9948.00
2018-06-14T07:44:15.571Z,7800.00
2018-06-14T07:45:15.811Z,7600.00
2018-06-14T07:46:16.037Z,7476.00
2018-06-14T07:47:16.268Z,7396.00
2018-06-14T07:48:16.507Z,7420.00
2018-06-14T07:49:16.737Z,7640.00
2018-06-14T07:50:16.972Z,7968.00
2018-06-14T07:51:17.208Z,8124.00
2018-06-14T07:52:17.446Z,8260.00
2018-06-14T07:53:17.677Z,8356.00
2018-06-14T07:54:17.913Z,8360.00
2018-06-14T07:55:18.151Z,8248.00
2018-06-14T07:56:18.390Z,8136.00
2018-06-14T07:57:18.622Z,8060.00
2018-06-14T07:58:18.856Z,7952.00
2018-06-14T07:59:19.086Z,8000.00
2018-06-14T08:00:19.317Z,8212.00
2018-06-14T08:01:19.551Z,8280.00
2018-06-14T08:02:19.788Z,8284.00
2018-06-14T08:03:20.020Z,8332.00
2018-06-14T08:04:20.255Z,8364.00
2018-06-14T08:05:20.487Z,8348.00
2018-06-14T08:06:20.721Z,8252.00
2018-06-14T08:07:20.957Z,8096.00
2018-06-14T08:08:21.186Z,7920.00
2018-06-14T08:09:21.421Z,7884.00
2018-06-14T08:10:21.654Z,7892.00
2018-06-14T08:11:21.885Z,7872.00
2018-06-14T08:12:22.140Z,7980.00
2018-06-14T08:13:22.352Z,8140.00
2018-06-14T08:14:22.585Z,8240.00
2018-06-14T08:15:22.821Z,8304.00
2018-06-14T08:16:23.054Z,8276.00
2018-06-14T08:17:23.290Z,8224.00
2018-06-14T08:18:23.521Z,8192.00
2018-06-14T08:19:23.759Z,8220.00
2018-06-14T08:20:23.992Z,8296.00
2018-06-14T08:21:24.226Z,8392.00
2018-06-14T08:22:24.454Z,8436.00
2018-06-14T08:23:24.687Z,8360.00
2018-06-14T08:24:24.923Z,8324.00
2018-06-14T08:25:25.152Z,8420.00
2018-06-14T08:26:25.386Z,8936.00
2018-06-14T08:27:25.619Z,10880.00
2018-06-14T08:28:25.850Z,11756.00
2018-06-14T08:29:26.084Z,11828.00
2018-06-14T08:30:26.320Z,11716.00
2018-06-14T08:31:26.550Z,11600.00
2018-06-14T08:32:26.786Z,11668.00
2018-06-14T08:33:27.014Z,11444.00
2018-06-14T08:34:27.252Z,11184.00
2018-06-14T08:35:27.487Z,10988.00
2018-06-14T08:36:27.722Z,10776.00
2018-06-14T08:37:27.955Z,10212.00
2018-06-14T08:38:28.193Z,10452.00
2018-06-14T08:39:28.465Z,10460.00
2018-06-14T08:40:28.658Z,10332.00
2018-06-14T08:41:28.886Z,10720.00
2018-06-14T08:42:29.119Z,10900.00
2018-06-14T08:43:29.352Z,11084.00
2018-06-14T08:44:29.587Z,11440.00
2018-06-14T08:45:29.819Z,9608.00
2018-06-14T08:46:30.053Z,11720.00
2018-06-14T08:47:30.288Z,11928.00
2018-06-14T08:48:30.524Z,11844.00
2018-06-14T08:49:30.761Z,9036.00
2018-06-14T08:50:30.986Z,8692.00
2018-06-14T08:51:31.221Z,8668.00
2018-06-14T08:52:31.453Z,8692.00
2018-06-14T08:53:31.689Z,8820.00
2018-06-14T08:54:31.922Z,9044.00
2018-06-14T08:55:32.155Z,9160.00
2018-06-14T08:56:32.388Z,9392.00
2018-06-14T08:57:32.626Z,9704.00
2018-06-14T08:58:32.861Z,9832.00
2018-06-14T08:59:33.089Z,9868.00
2018-06-14T09:00:33.323Z,9784.00
2018-06-14T09:01:33.556Z,9844.00
2018-06-14T09:02:33.788Z,9964.00
2018-06-14T09:03:34.021Z,10060.00
2018-06-14T09:04:34.261Z,10112.00
2018-06-14T09:05:34.496Z,10132.00
2018-06-14T09:06:34.734Z,10476.00
2018-06-14T09:07:34.962Z,12152.00
2018-06-14T09:08:35.201Z,12936.00
2018-06-14T09:09:35.434Z,12748.00
2018-06-14T09:10:35.665Z,12036.00
2018-06-14T09:11:35.903Z,10060.00
2018-06-14T09:12:36.136Z,10680.00
2018-06-14T09:13:36.372Z,12292.00
2018-06-14T09:14:36.610Z,9684.00
2018-06-14T09:15:36.844Z,9472.00
2018-06-14T09:16:37.076Z,9108.00
2018-06-14T09:17:37.309Z,8820.00
2018-06-14T09:18:37.543Z,8584.00
2018-06-14T09:19:37.775Z,8428.00
2018-06-14T09:20:38.008Z,8388.00
2018-06-14T09:21:38.243Z,8412.00
2018-06-14T09:22:38.485Z,8476.00
2018-06-14T09:23:38.722Z,8632.00
2018-06-14T09:24:38.960Z,8996.00
2018-06-14T09:25:39.191Z,9380.00
2018-06-14T09:26:39.424Z,11568.00
2018-06-14T09:27:39.665Z,9800.00
2018-06-14T09:28:39.897Z,9796.00
2018-06-14T09:29:40.129Z,9772.00
2018-06-14T09:30:40.374Z,9736.00
2018-06-14T09:31:40.608Z,9636.00
2018-06-14T09:32:40.839Z,12136.00
2018-06-14T09:33:41.070Z,9620.00
2018-06-14T09:34:41.296Z,9648.00
2018-06-14T09:35:41.533Z,9836.00
2018-06-14T09:36:41.763Z,11348.00
2018-06-14T09:37:42.002Z,9888.00
2018-06-14T09:38:42.233Z,8992.00
2018-06-14T09:39:42.460Z,8604.00
2018-06-14T09:40:42.693Z,8472.00
2018-06-14T09:41:42.932Z,8728.00
2018-06-14T09:42:43.162Z,9048.00
2018-06-14T09:43:43.404Z,9412.00
2018-06-14T09:44:43.627Z,9956.00
2018-06-14T09:45:43.861Z,10796.00
2018-06-14T09:46:44.096Z,10996.00
2018-06-14T09:47:44.328Z,13508.00
2018-06-14T09:48:44.563Z,11592.00
2018-06-14T09:49:44.794Z,11988.00
2018-06-14T09:50:45.026Z,13464.00
2018-06-14T09:51:45.261Z,12032.00
2018-06-14T09:52:45.496Z,11496.00
2018-06-14T09:53:45.727Z,11244.00
2018-06-14T09:54:45.958Z,11244.00
2018-06-14T09:55:46.190Z,11532.00
2018-06-14T09:56:46.425Z,11816.00
2018-06-14T09:57:46.659Z,12100.00
2018-06-14T09:58:46.886Z,12492.00
2018-06-14T09:59:47.127Z,12536.00
2018-06-14T10:00:47.360Z,12576.00
2018-06-14T10:01:47.593Z,12728.00
2018-06-14T10:02:47.831Z,13120.00
2018-06-14T10:03:48.063Z,13036.00
2018-06-14T10:04:48.297Z,13100.00
2018-06-14T10:05:48.529Z,12888.00
2018-06-14T10:06:48.766Z,12716.00
2018-06-14T10:07:49.001Z,13096.00
2018-06-14T10:08:49.235Z,12476.00
2018-06-14T10:09:49.471Z,11956.00
2018-06-14T10:10:49.708Z,12284.00
2018-06-14T10:11:49.940Z,11632.00
2018-06-14T10:12:50.176Z,11140.00
2018-06-14T10:13:50.409Z,10844.00
2018-06-14T10:14:50.644Z,12620.00
2018-06-14T10:15:50.883Z,11428.00
2018-06-14T10:16:51.117Z,10672.00
2018-06-14T10:17:51.356Z,11064.00
2018-06-14T10:18:51.586Z,11348.00
2018-06-14T10:19:51.824Z,12044.00
2018-06-14T10:20:52.063Z,13720.00
2018-06-14T10:21:52.344Z,13980.00
2018-06-14T10:22:52.525Z,13912.00
2018-06-14T10:23:52.764Z,13836.00
2018-06-14T10:24:52.998Z,12556.00
2018-06-14T10:25:53.229Z,14472.00
2018-06-14T10:26:53.466Z,14360.00
2018-06-14T10:27:53.699Z,14276.00
2018-06-14T10:28:53.945Z,14120.00
2018-06-14T10:29:54.170Z,14180.00
2018-06-14T10:30:54.407Z,11496.00
2018-06-14T10:31:54.644Z,11364.00
2018-06-14T10:32:54.879Z,13724.00
2018-06-14T10:33:55.117Z,13364.00
2018-06-14T10:34:55.354Z,13652.00
2018-06-14T10:35:55.590Z,13592.00
2018-06-14T10:36:55.823Z,13232.00
2018-06-14T10:37:56.054Z,13860.00
2018-06-14T10:38:56.298Z,14104.00
2018-06-14T10:39:56.536Z,13952.00
2018-06-14T10:40:56.771Z,14272.00
2018-06-14T10:41:57.005Z,12056.00
2018-06-14T10:42:57.246Z,14032.00
2018-06-14T10:43:57.478Z,11564.00
2018-06-14T10:44:58.575Z,11472.00
2018-06-14T10:45:57.932Z,11156.00
2018-06-14T10:46:58.173Z,10912.00
2018-06-14T10:47:58.406Z,10720.00
2018-06-14T10:48:58.641Z,10544.00
2018-06-14T10:49:58.876Z,11632.00
2018-06-14T10:50:59.112Z,10776.00
2018-06-14T10:51:59.346Z,12856.00
2018-06-14T10:52:59.583Z,12920.00
2018-06-14T10:53:59.819Z,12652.00
2018-06-14T10:55:00.059Z,12296.00
2018-06-14T10:56:00.292Z,12152.00
2018-06-14T10:57:00.528Z,11916.00
2018-06-14T10:58:00.764Z,11112.00
2018-06-14T10:59:01.000Z,10728.00
2018-06-14T11:00:01.234Z,10392.00
2018-06-14T11:01:01.490Z,10680.00
2018-06-14T11:02:01.726Z,10412.00
2018-06-14T11:03:01.959Z,11448.00
2018-06-14T11:04:02.195Z,10312.00
2018-06-14T11:05:02.432Z,11456.00
2018-06-14T11:06:02.731Z,12588.00
2018-06-14T11:07:02.904Z,12316.00
2018-06-14T11:08:03.141Z,10420.00
2018-06-14T11:09:03.377Z,9736.00
2018-06-14T11:10:03.614Z,9424.00
2018-06-14T11:11:03.849Z,9192.00
2018-06-14T11:12:04.088Z,9080.00
2018-06-14T11:13:04.333Z,9244.00
2018-06-14T11:14:04.568Z,9508.00
2018-06-14T11:15:04.805Z,9824.00
2018-06-14T11:16:05.040Z,12092.00
2018-06-14T11:17:05.278Z,12972.00
2018-06-14T11:18:05.515Z,12928.00
2018-06-14T11:19:05.749Z,12640.00
2018-06-14T11:20:05.985Z,10344.00
2018-06-14T11:21:06.219Z,9796.00
2018-06-14T11:22:06.455Z,10164.00
2018-06-14T11:23:06.694Z,9424.00
2018-06-14T11:24:06.928Z,11096.00
2018-06-14T11:25:07.164Z,9960.00
2018-06-14T11:26:07.396Z,9964.00
2018-06-14T11:27:07.634Z,10032.00
2018-06-14T11:28:07.870Z,8788.00
2018-06-14T11:29:08.110Z,8584.00
2018-06-14T11:30:08.346Z,9108.00
2018-06-14T11:31:08.583Z,8332.00
2018-06-14T11:32:08.817Z,8292.00
2018-06-14T11:33:09.053Z,8492.00
2018-06-14T11:34:09.341Z,8756.00
2018-06-14T11:35:09.526Z,8984.00
2018-06-14T11:36:09.760Z,9036.00
2018-06-14T11:37:09.995Z,9132.00
2018-06-14T11:38:10.231Z,9496.00
2018-06-14T11:39:10.463Z,9764.00
2018-06-14T11:40:10.702Z,10836.00
2018-06-14T11:41:10.936Z,9952.00
2018-06-14T11:42:11.172Z,11488.00
2018-06-14T11:43:11.410Z,11276.00
2018-06-14T11:44:11.643Z,10948.00
2018-06-14T11:45:11.879Z,10376.00
2018-06-14T11:46:12.116Z,10228.00
2018-06-14T11:47:12.353Z,9904.00
2018-06-14T11:48:12.640Z,9916.00
2018-06-14T11:49:12.820Z,9996.00
2018-06-14T11:50:13.057Z,10016.00
2018-06-14T11:51:13.292Z,9984.00
2018-06-14T11:52:13.529Z,10252.00
2018-06-14T11:53:13.765Z,10044.00
2018-06-14T11:54:14.016Z,7920.00
2018-06-14T11:55:14.236Z,7636.00
2018-06-14T11:56:14.467Z,7828.00
2018-06-14T11:57:14.704Z,8112.00
2018-06-14T11:58:14.939Z,7320.00
2018-06-14T11:59:15.175Z,7480.00
2018-06-14T12:00:15.411Z,7628.00
2018-06-14T12:01:15.687Z,7888.00
2018-06-14T12:02:15.885Z,8080.00
2018-06-14T12:03:16.120Z,9592.00
2018-06-14T12:04:16.355Z,8004.00
2018-06-14T12:05:16.590Z,9708.00
2018-06-14T12:06:16.828Z,9756.00
2018-06-14T12:07:17.065Z,9528.00
2018-06-14T12:08:17.324Z,9348.00
2018-06-14T12:09:17.536Z,9080.00
2018-06-14T12:10:17.777Z,8636.00
2018-06-14T12:11:18.015Z,7292.00
2018-06-14T12:12:18.249Z,7116.00
2018-06-14T12:13:18.488Z,8568.00
2018-06-14T12:14:18.723Z,9452.00
2018-06-14T12:15:18.967Z,8696.00
2018-06-14T12:16:19.195Z,7320.00